sensor_id;sensor_type;location;lat;lon;timestamp;P1;durP1;ratioP1;P2;durP2;ratioP2
35907;SDS011;22003;50.320;8.054;2023-12-28T00:00:21;4.88;;;2.60;;
35907;SDS011;22003;50.320;8.054;2023-12-28T00:02:46;6.65;;;2.90;;
35907;SDS011;22003;50.320;8.054;2023-12-28T00:05:11;4.72;;;2.67;;
35907;SDS011;22003;50.320;8.054;2023-12-28T00:07:37;5.22;;;2.90;;
35907;SDS011;22003;50.320;8.054;2023-12-28T00:10:02;5.75;;;2.42;;
35907;SDS011;22003;50.320;8.054;2023-12-28T00:12:28;3.83;;;2.13;;
35907;SDS011;22003;50.320;8.054;2023-12-28T00:14:54;4.70;;;2.45;;
35907;SDS011;22003;50.320;8.054;2023-12-28T00:17:19;3.60;;;1.90;;
35907;SDS011;22003;50.320;8.054;2023-12-28T00:19:44;5.47;;;2.35;;
35907;SDS011;22003;50.320;8.054;2023-12-28T00:22:09;5.70;;;2.78;;
35907;SDS011;22003;50.320;8.054;2023-12-28T00:24:35;6.93;;;3.75;;
35907;SDS011;22003;50.320;8.054;2023-12-28T00:27:00;5.95;;;2.63;;
35907;SDS011;22003;50.320;8.054;2023-12-28T00:29:25;3.78;;;1.90;;
35907;SDS011;22003;50.320;8.054;2023-12-28T00:31:51;5.45;;;2.65;;
35907;SDS011;22003;50.320;8.054;2023-12-28T00:34:16;6.53;;;2.88;;
35907;SDS011;22003;50.320;8.054;2023-12-28T00:36:41;4.55;;;2.38;;
35907;SDS011;22003;50.320;8.054;2023-12-28T00:39:06;5.07;;;2.30;;
35907;SDS011;22003;50.320;8.054;2023-12-28T00:41:32;6.47;;;2.30;;
35907;SDS011;22003;50.320;8.054;2023-12-28T00:43:57;6.18;;;2.58;;
35907;SDS011;22003;50.320;8.054;2023-12-28T00:46:22;7.82;;;2.88;;
35907;SDS011;22003;50.320;8.054;2023-12-28T00:48:47;7.82;;;3.53;;
35907;SDS011;22003;50.320;8.054;2023-12-28T00:51:13;5.97;;;3.40;;
35907;SDS011;22003;50.320;8.054;2023-12-28T00:53:39;8.73;;;3.53;;
35907;SDS011;22003;50.320;8.054;2023-12-28T00:56:04;8.82;;;3.10;;
35907;SDS011;22003;50.320;8.054;2023-12-28T00:58:29;8.63;;;3.55;;
35907;SDS011;22003;50.320;8.054;2023-12-28T01:00:54;10.45;;;3.53;;
35907;SDS011;22003;50.320;8.054;2023-12-28T01:03:21;7.20;;;3.08;;
35907;SDS011;22003;50.320;8.054;2023-12-28T01:05:47;10.85;;;3.63;;
35907;SDS011;22003;50.320;8.054;2023-12-28T01:08:15;3.28;;;2.22;;
35907;SDS011;22003;50.320;8.054;2023-12-28T01:10:40;5.63;;;3.00;;
35907;SDS011;22003;50.320;8.054;2023-12-28T01:13:06;6.55;;;3.25;;
35907;SDS011;22003;50.320;8.054;2023-12-28T01:15:31;5.55;;;2.90;;
35907;SDS011;22003;50.320;8.054;2023-12-28T01:17:56;3.65;;;1.95;;
35907;SDS011;22003;50.320;8.054;2023-12-28T01:20:22;3.90;;;2.20;;
35907;SDS011;22003;50.320;8.054;2023-12-28T01:22:47;6.47;;;2.53;;
35907;SDS011;22003;50.320;8.054;2023-12-28T01:25:14;4.82;;;2.40;;
35907;SDS011;22003;50.320;8.054;2023-12-28T01:27:40;4.57;;;2.28;;
35907;SDS011;22003;50.320;8.054;2023-12-28T01:30:05;4.93;;;2.38;;
35907;SDS011;22003;50.320;8.054;2023-12-28T01:32:31;5.10;;;2.30;;
35907;SDS011;22003;50.320;8.054;2023-12-28T01:34:56;4.55;;;2.72;;
35907;SDS011;22003;50.320;8.054;2023-12-28T01:37:22;8.25;;;2.40;;
35907;SDS011;22003;50.320;8.054;2023-12-28T01:39:48;3.47;;;2.05;;
35907;SDS011;22003;50.320;8.054;2023-12-28T01:42:13;4.90;;;2.50;;
35907;SDS011;22003;50.320;8.054;2023-12-28T01:44:38;4.22;;;2.60;;
35907;SDS011;22003;50.320;8.054;2023-12-28T01:47:03;3.58;;;2.58;;
35907;SDS011;22003;50.320;8.054;2023-12-28T01:49:30;4.35;;;2.35;;
35907;SDS011;22003;50.320;8.054;2023-12-28T01:51:55;4.88;;;2.25;;
35907;SDS011;22003;50.320;8.054;2023-12-28T01:54:21;5.95;;;2.30;;
35907;SDS011;22003;50.320;8.054;2023-12-28T01:56:47;6.05;;;2.63;;
35907;SDS011;22003;50.320;8.054;2023-12-28T01:59:13;4.28;;;2.60;;
35907;SDS011;22003;50.320;8.054;2023-12-28T02:01:39;3.35;;;2.20;;
35907;SDS011;22003;50.320;8.054;2023-12-28T02:04:06;6.65;;;2.42;;
35907;SDS011;22003;50.320;8.054;2023-12-28T02:06:31;5.30;;;2.60;;
35907;SDS011;22003;50.320;8.054;2023-12-28T02:08:56;4.53;;;2.67;;
35907;SDS011;22003;50.320;8.054;2023-12-28T02:11:22;7.10;;;2.42;;
35907;SDS011;22003;50.320;8.054;2023-12-28T02:13:47;4.93;;;2.50;;
35907;SDS011;22003;50.320;8.054;2023-12-28T02:16:13;3.95;;;2.65;;
35907;SDS011;22003;50.320;8.054;2023-12-28T02:18:43;7.15;;;2.90;;
35907;SDS011;22003;50.320;8.054;2023-12-28T02:21:12;6.80;;;2.80;;
35907;SDS011;22003;50.320;8.054;2023-12-28T02:23:38;5.20;;;2.38;;
35907;SDS011;22003;50.320;8.054;2023-12-28T02:26:04;5.32;;;2.00;;
35907;SDS011;22003;50.320;8.054;2023-12-28T02:28:29;3.65;;;2.33;;
35907;SDS011;22003;50.320;8.054;2023-12-28T02:30:54;3.92;;;2.17;;
35907;SDS011;22003;50.320;8.054;2023-12-28T02:33:29;3.70;;;2.38;;
35907;SDS011;22003;50.320;8.054;2023-12-28T02:36:09;5.33;;;2.80;;
35907;SDS011;22003;50.320;8.054;2023-12-28T02:38:36;4.28;;;2.42;;
35907;SDS011;22003;50.320;8.054;2023-12-28T02:41:03;7.22;;;3.05;;
35907;SDS011;22003;50.320;8.054;2023-12-28T02:43:29;5.57;;;2.83;;
35907;SDS011;22003;50.320;8.054;2023-12-28T02:45:54;7.30;;;2.67;;
35907;SDS011;22003;50.320;8.054;2023-12-28T02:48:19;4.40;;;2.55;;
35907;SDS011;22003;50.320;8.054;2023-12-28T02:50:45;6.13;;;2.53;;
35907;SDS011;22003;50.320;8.054;2023-12-28T02:53:10;5.30;;;2.47;;
35907;SDS011;22003;50.320;8.054;2023-12-28T02:55:36;4.80;;;2.63;;
35907;SDS011;22003;50.320;8.054;2023-12-28T02:58:02;5.40;;;2.75;;
35907;SDS011;22003;50.320;8.054;2023-12-28T03:00:27;5.95;;;2.70;;
35907;SDS011;22003;50.320;8.054;2023-12-28T03:02:53;3.63;;;2.55;;
35907;SDS011;22003;50.320;8.054;2023-12-28T03:05:18;5.35;;;2.65;;
35907;SDS011;22003;50.320;8.054;2023-12-28T03:07:43;3.10;;;2.00;;
35907;SDS011;22003;50.320;8.054;2023-12-28T03:10:09;3.78;;;2.10;;
35907;SDS011;22003;50.320;8.054;2023-12-28T03:12:36;4.97;;;2.50;;
35907;SDS011;22003;50.320;8.054;2023-12-28T03:15:01;3.85;;;2.30;;
35907;SDS011;22003;50.320;8.054;2023-12-28T03:17:27;3.35;;;2.10;;
35907;SDS011;22003;50.320;8.054;2023-12-28T03:19:53;3.83;;;2.10;;
35907;SDS011;22003;50.320;8.054;2023-12-28T03:22:19;6.63;;;2.63;;
35907;SDS011;22003;50.320;8.054;2023-12-28T03:24:44;4.45;;;1.92;;
35907;SDS011;22003;50.320;8.054;2023-12-28T03:27:10;3.45;;;2.08;;
35907;SDS011;22003;50.320;8.054;2023-12-28T03:29:36;4.75;;;2.47;;
35907;SDS011;22003;50.320;8.054;2023-12-28T03:32:01;4.28;;;2.65;;
35907;SDS011;22003;50.320;8.054;2023-12-28T03:34:27;4.70;;;2.92;;
35907;SDS011;22003;50.320;8.054;2023-12-28T03:36:54;4.53;;;2.60;;
35907;SDS011;22003;50.320;8.054;2023-12-28T03:39:19;5.57;;;2.40;;
35907;SDS011;22003;50.320;8.054;2023-12-28T03:41:45;3.47;;;2.30;;
35907;SDS011;22003;50.320;8.054;2023-12-28T03:44:10;3.72;;;2.53;;
35907;SDS011;22003;50.320;8.054;2023-12-28T03:46:35;3.63;;;2.80;;
35907;SDS011;22003;50.320;8.054;2023-12-28T03:49:00;3.97;;;2.60;;
35907;SDS011;22003;50.320;8.054;2023-12-28T03:51:26;3.30;;;2.40;;
35907;SDS011;22003;50.320;8.054;2023-12-28T03:53:51;3.33;;;2.40;;
35907;SDS011;22003;50.320;8.054;2023-12-28T03:56:20;3.80;;;2.65;;
35907;SDS011;22003;50.320;8.054;2023-12-28T03:58:47;4.57;;;2.80;;
35907;SDS011;22003;50.320;8.054;2023-12-28T04:01:12;4.72;;;2.47;;
35907;SDS011;22003;50.320;8.054;2023-12-28T04:03:37;5.25;;;2.67;;
35907;SDS011;22003;50.320;8.054;2023-12-28T04:06:02;5.10;;;3.13;;
35907;SDS011;22003;50.320;8.054;2023-12-28T04:08:28;4.07;;;2.72;;
35907;SDS011;22003;50.320;8.054;2023-12-28T04:10:53;3.85;;;2.47;;
35907;SDS011;22003;50.320;8.054;2023-12-28T04:13:18;3.75;;;2.60;;
35907;SDS011;22003;50.320;8.054;2023-12-28T04:15:43;4.30;;;2.53;;
35907;SDS011;22003;50.320;8.054;2023-12-28T04:18:09;3.45;;;2.58;;
35907;SDS011;22003;50.320;8.054;2023-12-28T04:20:34;4.75;;;2.45;;
35907;SDS011;22003;50.320;8.054;2023-12-28T04:22:59;4.97;;;2.67;;
35907;SDS011;22003;50.320;8.054;2023-12-28T04:25:25;4.93;;;2.67;;
35907;SDS011;22003;50.320;8.054;2023-12-28T04:27:50;5.78;;;2.90;;
35907;SDS011;22003;50.320;8.054;2023-12-28T04:30:15;4.38;;;2.67;;
35907;SDS011;22003;50.320;8.054;2023-12-28T04:32:40;4.50;;;2.40;;
35907;SDS011;22003;50.320;8.054;2023-12-28T04:35:06;4.32;;;2.42;;
35907;SDS011;22003;50.320;8.054;2023-12-28T04:37:31;3.33;;;2.40;;
35907;SDS011;22003;50.320;8.054;2023-12-28T04:39:57;2.88;;;2.30;;
35907;SDS011;22003;50.320;8.054;2023-12-28T04:42:23;4.80;;;2.72;;
35907;SDS011;22003;50.320;8.054;2023-12-28T04:44:48;7.97;;;2.83;;
35907;SDS011;22003;50.320;8.054;2023-12-28T04:47:13;3.22;;;2.20;;
35907;SDS011;22003;50.320;8.054;2023-12-28T04:49:39;3.22;;;2.35;;
35907;SDS011;22003;50.320;8.054;2023-12-28T04:52:04;4.93;;;3.10;;
35907;SDS011;22003;50.320;8.054;2023-12-28T04:54:29;7.40;;;2.40;;
35907;SDS011;22003;50.320;8.054;2023-12-28T04:56:55;5.78;;;2.80;;
35907;SDS011;22003;50.320;8.054;2023-12-28T04:59:21;3.50;;;2.70;;
35907;SDS011;22003;50.320;8.054;2023-12-28T05:01:46;5.50;;;3.00;;
35907;SDS011;22003;50.320;8.054;2023-12-28T05:04:11;4.47;;;2.40;;
35907;SDS011;22003;50.320;8.054;2023-12-28T05:06:37;3.85;;;2.83;;
35907;SDS011;22003;50.320;8.054;2023-12-28T05:09:02;5.15;;;2.55;;
35907;SDS011;22003;50.320;8.054;2023-12-28T05:11:29;5.57;;;2.50;;
35907;SDS011;22003;50.320;8.054;2023-12-28T05:13:54;3.22;;;2.30;;
35907;SDS011;22003;50.320;8.054;2023-12-28T05:16:20;3.85;;;2.42;;
35907;SDS011;22003;50.320;8.054;2023-12-28T05:18:45;3.65;;;2.28;;
35907;SDS011;22003;50.320;8.054;2023-12-28T05:21:14;4.50;;;2.10;;
35907;SDS011;22003;50.320;8.054;2023-12-28T05:23:39;3.67;;;2.30;;
35907;SDS011;22003;50.320;8.054;2023-12-28T05:26:05;3.38;;;2.65;;
35907;SDS011;22003;50.320;8.054;2023-12-28T05:28:31;3.22;;;2.28;;
35907;SDS011;22003;50.320;8.054;2023-12-28T05:30:56;5.90;;;3.15;;
35907;SDS011;22003;50.320;8.054;2023-12-28T05:33:23;4.43;;;2.75;;
35907;SDS011;22003;50.320;8.054;2023-12-28T05:35:49;3.28;;;2.08;;
35907;SDS011;22003;50.320;8.054;2023-12-28T05:38:14;5.47;;;2.28;;
35907;SDS011;22003;50.320;8.054;2023-12-28T05:40:39;4.22;;;2.22;;
35907;SDS011;22003;50.320;8.054;2023-12-28T05:43:05;4.28;;;2.60;;
35907;SDS011;22003;50.320;8.054;2023-12-28T05:45:30;3.58;;;2.22;;
35907;SDS011;22003;50.320;8.054;2023-12-28T05:47:56;3.63;;;2.28;;
35907;SDS011;22003;50.320;8.054;2023-12-28T05:50:21;5.38;;;2.17;;
35907;SDS011;22003;50.320;8.054;2023-12-28T05:52:47;3.65;;;2.38;;
35907;SDS011;22003;50.320;8.054;2023-12-28T05:55:12;5.03;;;2.30;;
35907;SDS011;22003;50.320;8.054;2023-12-28T05:57:37;3.65;;;2.38;;
35907;SDS011;22003;50.320;8.054;2023-12-28T06:00:03;4.60;;;2.20;;
35907;SDS011;22003;50.320;8.054;2023-12-28T06:02:29;3.90;;;2.30;;
35907;SDS011;22003;50.320;8.054;2023-12-28T06:04:54;4.50;;;2.55;;
35907;SDS011;22003;50.320;8.054;2023-12-28T06:07:20;4.00;;;2.45;;
35907;SDS011;22003;50.320;8.054;2023-12-28T06:09:45;6.80;;;3.65;;
35907;SDS011;22003;50.320;8.054;2023-12-28T06:12:11;4.10;;;2.28;;
35907;SDS011;22003;50.320;8.054;2023-12-28T06:14:36;5.88;;;3.28;;
35907;SDS011;22003;50.320;8.054;2023-12-28T06:17:01;4.75;;;2.78;;
35907;SDS011;22003;50.320;8.054;2023-12-28T06:19:27;7.65;;;2.70;;
35907;SDS011;22003;50.320;8.054;2023-12-28T06:21:52;4.43;;;2.67;;
35907;SDS011;22003;50.320;8.054;2023-12-28T06:24:19;8.50;;;3.70;;
35907;SDS011;22003;50.320;8.054;2023-12-28T06:26:44;5.47;;;3.03;;
35907;SDS011;22003;50.320;8.054;2023-12-28T06:29:10;6.57;;;2.80;;
35907;SDS011;22003;50.320;8.054;2023-12-28T06:31:36;6.97;;;3.55;;
35907;SDS011;22003;50.320;8.054;2023-12-28T06:34:02;9.65;;;3.00;;
35907;SDS011;22003;50.320;8.054;2023-12-28T06:36:28;5.88;;;2.97;;
35907;SDS011;22003;50.320;8.054;2023-12-28T06:38:54;4.07;;;2.30;;
35907;SDS011;22003;50.320;8.054;2023-12-28T06:41:19;5.82;;;2.60;;
35907;SDS011;22003;50.320;8.054;2023-12-28T06:43:44;5.95;;;3.50;;
35907;SDS011;22003;50.320;8.054;2023-12-28T06:46:10;10.18;;;3.85;;
35907;SDS011;22003;50.320;8.054;2023-12-28T06:48:35;6.93;;;2.22;;
35907;SDS011;22003;50.320;8.054;2023-12-28T06:51:00;3.83;;;2.13;;
35907;SDS011;22003;50.320;8.054;2023-12-28T06:53:25;5.72;;;2.40;;
35907;SDS011;22003;50.320;8.054;2023-12-28T06:55:51;3.75;;;1.75;;
35907;SDS011;22003;50.320;8.054;2023-12-28T06:58:16;8.05;;;2.38;;
35907;SDS011;22003;50.320;8.054;2023-12-28T07:00:41;4.00;;;2.03;;
35907;SDS011;22003;50.320;8.054;2023-12-28T07:03:08;2.42;;;1.25;;
35907;SDS011;22003;50.320;8.054;2023-12-28T07:05:34;4.70;;;1.40;;
35907;SDS011;22003;50.320;8.054;2023-12-28T07:07:59;4.22;;;2.10;;
35907;SDS011;22003;50.320;8.054;2023-12-28T07:10:24;7.00;;;2.53;;
35907;SDS011;22003;50.320;8.054;2023-12-28T07:12:50;5.50;;;2.28;;
35907;SDS011;22003;50.320;8.054;2023-12-28T07:15:15;7.20;;;2.72;;
35907;SDS011;22003;50.320;8.054;2023-12-28T07:17:40;7.68;;;2.72;;
35907;SDS011;22003;50.320;8.054;2023-12-28T07:20:06;4.47;;;2.28;;
35907;SDS011;22003;50.320;8.054;2023-12-28T07:22:34;7.72;;;2.50;;
35907;SDS011;22003;50.320;8.054;2023-12-28T07:24:59;8.23;;;3.38;;
35907;SDS011;22003;50.320;8.054;2023-12-28T07:27:24;6.68;;;2.58;;
35907;SDS011;22003;50.320;8.054;2023-12-28T07:29:50;4.65;;;2.05;;
35907;SDS011;22003;50.320;8.054;2023-12-28T07:32:15;9.70;;;3.22;;
35907;SDS011;22003;50.320;8.054;2023-12-28T07:34:40;11.00;;;4.80;;
35907;SDS011;22003;50.320;8.054;2023-12-28T07:37:05;8.48;;;3.05;;
35907;SDS011;22003;50.320;8.054;2023-12-28T07:39:31;6.32;;;3.17;;
35907;SDS011;22003;50.320;8.054;2023-12-28T07:41:56;9.90;;;4.32;;
35907;SDS011;22003;50.320;8.054;2023-12-28T07:44:21;15.00;;;5.85;;
35907;SDS011;22003;50.320;8.054;2023-12-28T07:46:47;16.10;;;5.80;;
35907;SDS011;22003;50.320;8.054;2023-12-28T07:49:12;22.48;;;7.40;;
35907;SDS011;22003;50.320;8.054;2023-12-28T07:51:37;8.45;;;3.78;;
35907;SDS011;22003;50.320;8.054;2023-12-28T07:54:02;8.35;;;3.10;;
35907;SDS011;22003;50.320;8.054;2023-12-28T07:56:28;8.57;;;2.35;;
35907;SDS011;22003;50.320;8.054;2023-12-28T07:58:54;5.15;;;2.00;;
35907;SDS011;22003;50.320;8.054;2023-12-28T08:01:19;5.63;;;1.83;;
35907;SDS011;22003;50.320;8.054;2023-12-28T08:03:45;6.53;;;2.25;;
35907;SDS011;22003;50.320;8.054;2023-12-28T08:06:10;5.97;;;2.03;;
35907;SDS011;22003;50.320;8.054;2023-12-28T08:08:37;7.35;;;1.60;;
35907;SDS011;22003;50.320;8.054;2023-12-28T08:11:03;6.05;;;1.88;;
35907;SDS011;22003;50.320;8.054;2023-12-28T08:13:28;5.57;;;2.20;;
35907;SDS011;22003;50.320;8.054;2023-12-28T08:15:53;2.63;;;2.10;;
35907;SDS011;22003;50.320;8.054;2023-12-28T08:18:18;5.05;;;2.42;;
35907;SDS011;22003;50.320;8.054;2023-12-28T08:20:44;6.35;;;2.13;;
35907;SDS011;22003;50.320;8.054;2023-12-28T08:23:09;3.33;;;2.40;;
35907;SDS011;22003;50.320;8.054;2023-12-28T08:25:35;6.25;;;1.42;;
35907;SDS011;22003;50.320;8.054;2023-12-28T08:28:00;2.70;;;1.42;;
35907;SDS011;22003;50.320;8.054;2023-12-28T08:30:25;3.88;;;2.25;;
35907;SDS011;22003;50.320;8.054;2023-12-28T08:32:52;2.45;;;1.67;;
35907;SDS011;22003;50.320;8.054;2023-12-28T08:35:18;5.05;;;2.15;;
35907;SDS011;22003;50.320;8.054;2023-12-28T08:37:43;4.40;;;1.60;;
35907;SDS011;22003;50.320;8.054;2023-12-28T08:40:08;2.38;;;1.50;;
35907;SDS011;22003;50.320;8.054;2023-12-28T08:42:34;7.93;;;2.03;;
35907;SDS011;22003;50.320;8.054;2023-12-28T08:44:59;4.05;;;1.63;;
35907;SDS011;22003;50.320;8.054;2023-12-28T08:47:24;6.40;;;2.90;;
35907;SDS011;22003;50.320;8.054;2023-12-28T08:49:50;6.15;;;2.90;;
35907;SDS011;22003;50.320;8.054;2023-12-28T08:52:15;9.18;;;1.98;;
35907;SDS011;22003;50.320;8.054;2023-12-28T08:54:40;5.55;;;2.08;;
35907;SDS011;22003;50.320;8.054;2023-12-28T08:57:06;6.18;;;2.05;;
35907;SDS011;22003;50.320;8.054;2023-12-28T08:59:31;4.00;;;1.50;;
35907;SDS011;22003;50.320;8.054;2023-12-28T09:01:56;5.03;;;1.92;;
35907;SDS011;22003;50.320;8.054;2023-12-28T09:04:22;4.97;;;1.40;;
35907;SDS011;22003;50.320;8.054;2023-12-28T09:06:47;4.30;;;1.48;;
35907;SDS011;22003;50.320;8.054;2023-12-28T09:09:12;4.30;;;2.00;;
35907;SDS011;22003;50.320;8.054;2023-12-28T09:11:37;3.72;;;1.50;;
35907;SDS011;22003;50.320;8.054;2023-12-28T09:14:03;2.85;;;1.70;;
35907;SDS011;22003;50.320;8.054;2023-12-28T09:16:28;5.25;;;1.60;;
35907;SDS011;22003;50.320;8.054;2023-12-28T09:18:53;4.78;;;1.83;;
35907;SDS011;22003;50.320;8.054;2023-12-28T09:21:19;3.10;;;1.75;;
35907;SDS011;22003;50.320;8.054;2023-12-28T09:23:45;8.43;;;1.97;;
35907;SDS011;22003;50.320;8.054;2023-12-28T09:26:11;6.05;;;1.73;;
35907;SDS011;22003;50.320;8.054;2023-12-28T09:28:36;9.02;;;2.53;;
35907;SDS011;22003;50.320;8.054;2023-12-28T09:31:02;4.57;;;2.33;;
35907;SDS011;22003;50.320;8.054;2023-12-28T09:33:27;5.15;;;1.95;;
35907;SDS011;22003;50.320;8.054;2023-12-28T09:35:53;6.72;;;2.85;;
35907;SDS011;22003;50.320;8.054;2023-12-28T09:38:21;3.00;;;1.92;;
35907;SDS011;22003;50.320;8.054;2023-12-28T09:40:47;4.63;;;1.55;;
35907;SDS011;22003;50.320;8.054;2023-12-28T09:43:23;3.17;;;1.45;;
35907;SDS011;22003;50.320;8.054;2023-12-28T09:46:01;5.50;;;1.85;;
35907;SDS011;22003;50.320;8.054;2023-12-28T09:48:31;3.83;;;1.40;;
35907;SDS011;22003;50.320;8.054;2023-12-28T09:50:57;6.78;;;1.88;;
35907;SDS011;22003;50.320;8.054;2023-12-28T09:53:26;3.03;;;1.40;;
35907;SDS011;22003;50.320;8.054;2023-12-28T09:55:51;4.05;;;1.55;;
35907;SDS011;22003;50.320;8.054;2023-12-28T09:58:18;23.73;;;9.40;;
35907;SDS011;22003;50.320;8.054;2023-12-28T10:00:45;4.35;;;1.85;;
35907;SDS011;22003;50.320;8.054;2023-12-28T10:03:14;5.07;;;1.85;;
35907;SDS011;22003;50.320;8.054;2023-12-28T10:05:41;13.88;;;5.38;;
35907;SDS011;22003;50.320;8.054;2023-12-28T10:08:07;10.88;;;4.22;;
35907;SDS011;22003;50.320;8.054;2023-12-28T10:10:32;6.82;;;1.65;;
35907;SDS011;22003;50.320;8.054;2023-12-28T10:12:58;2.95;;;1.52;;
35907;SDS011;22003;50.320;8.054;2023-12-28T10:15:23;4.38;;;1.60;;
35907;SDS011;22003;50.320;8.054;2023-12-28T10:17:51;3.38;;;1.33;;
35907;SDS011;22003;50.320;8.054;2023-12-28T10:20:17;8.27;;;3.07;;
35907;SDS011;22003;50.320;8.054;2023-12-28T10:22:42;4.28;;;2.10;;
35907;SDS011;22003;50.320;8.054;2023-12-28T10:25:08;3.72;;;1.27;;
35907;SDS011;22003;50.320;8.054;2023-12-28T10:27:37;2.83;;;1.02;;
35907;SDS011;22003;50.320;8.054;2023-12-28T10:30:04;4.32;;;1.17;;
35907;SDS011;22003;50.320;8.054;2023-12-28T10:32:30;3.97;;;0.93;;
35907;SDS011;22003;50.320;8.054;2023-12-28T10:34:55;3.17;;;1.23;;
35907;SDS011;22003;50.320;8.054;2023-12-28T10:37:21;4.43;;;1.20;;
35907;SDS011;22003;50.320;8.054;2023-12-28T10:39:47;1.23;;;0.85;;
35907;SDS011;22003;50.320;8.054;2023-12-28T10:42:17;4.85;;;1.45;;
35907;SDS011;22003;50.320;8.054;2023-12-28T10:44:53;2.22;;;1.00;;
35907;SDS011;22003;50.320;8.054;2023-12-28T10:47:24;2.30;;;1.00;;
35907;SDS011;22003;50.320;8.054;2023-12-28T10:49:51;8.25;;;1.30;;
35907;SDS011;22003;50.320;8.054;2023-12-28T10:52:20;3.85;;;1.48;;
35907;SDS011;22003;50.320;8.054;2023-12-28T10:54:52;4.53;;;1.33;;
35907;SDS011;22003;50.320;8.054;2023-12-28T11:02:37;5.68;;;1.30;;
35907;SDS011;22003;50.320;8.054;2023-12-28T11:05:04;3.53;;;1.00;;
35907;SDS011;22003;50.320;8.054;2023-12-28T11:07:31;2.55;;;1.20;;
35907;SDS011;22003;50.320;8.054;2023-12-28T11:09:58;2.90;;;1.27;;
35907;SDS011;22003;50.320;8.054;2023-12-28T11:14:51;5.38;;;1.58;;
35907;SDS011;22003;50.320;8.054;2023-12-28T11:17:18;7.32;;;1.38;;
35907;SDS011;22003;50.320;8.054;2023-12-28T11:19:45;2.22;;;0.82;;
35907;SDS011;22003;50.320;8.054;2023-12-28T11:22:11;2.47;;;1.20;;
35907;SDS011;22003;50.320;8.054;2023-12-28T11:24:38;3.55;;;1.30;;
35907;SDS011;22003;50.320;8.054;2023-12-28T11:27:04;6.72;;;1.40;;
35907;SDS011;22003;50.320;8.054;2023-12-28T11:29:30;1.63;;;0.90;;
35907;SDS011;22003;50.320;8.054;2023-12-28T11:31:59;4.32;;;1.30;;
35907;SDS011;22003;50.320;8.054;2023-12-28T11:34:26;2.95;;;1.35;;
35907;SDS011;22003;50.320;8.054;2023-12-28T11:36:54;5.13;;;1.58;;
35907;SDS011;22003;50.320;8.054;2023-12-28T11:39:27;6.10;;;1.00;;
35907;SDS011;22003;50.320;8.054;2023-12-28T11:41:59;1.60;;;1.02;;
35907;SDS011;22003;50.320;8.054;2023-12-28T11:44:26;3.03;;;1.35;;
35907;SDS011;22003;50.320;8.054;2023-12-28T11:46:51;3.33;;;1.80;;
35907;SDS011;22003;50.320;8.054;2023-12-28T11:49:17;4.85;;;1.60;;
35907;SDS011;22003;50.320;8.054;2023-12-28T11:51:56;9.43;;;1.80;;
35907;SDS011;22003;50.320;8.054;2023-12-28T11:54:23;4.18;;;1.42;;
35907;SDS011;22003;50.320;8.054;2023-12-28T11:56:49;4.75;;;1.27;;
35907;SDS011;22003;50.320;8.054;2023-12-28T11:59:14;11.20;;;1.65;;
35907;SDS011;22003;50.320;8.054;2023-12-28T12:01:40;2.95;;;0.95;;
35907;SDS011;22003;50.320;8.054;2023-12-28T12:04:06;3.92;;;1.45;;
35907;SDS011;22003;50.320;8.054;2023-12-28T12:06:32;2.67;;;1.10;;
35907;SDS011;22003;50.320;8.054;2023-12-28T12:08:57;5.80;;;1.02;;
35907;SDS011;22003;50.320;8.054;2023-12-28T12:11:24;7.40;;;1.65;;
35907;SDS011;22003;50.320;8.054;2023-12-28T12:13:50;4.95;;;1.20;;
35907;SDS011;22003;50.320;8.054;2023-12-28T12:16:17;4.07;;;1.10;;
35907;SDS011;22003;50.320;8.054;2023-12-28T12:18:42;5.85;;;0.82;;
35907;SDS011;22003;50.320;8.054;2023-12-28T12:21:08;6.32;;;1.35;;
35907;SDS011;22003;50.320;8.054;2023-12-28T12:23:33;4.82;;;1.15;;
35907;SDS011;22003;50.320;8.054;2023-12-28T12:25:59;3.67;;;0.98;;
35907;SDS011;22003;50.320;8.054;2023-12-28T12:28:24;4.03;;;1.10;;
35907;SDS011;22003;50.320;8.054;2023-12-28T12:30:53;4.75;;;1.08;;
35907;SDS011;22003;50.320;8.054;2023-12-28T12:33:21;3.25;;;1.17;;
35907;SDS011;22003;50.320;8.054;2023-12-28T12:35:46;9.27;;;1.88;;
35907;SDS011;22003;50.320;8.054;2023-12-28T12:38:12;7.65;;;0.93;;
35907;SDS011;22003;50.320;8.054;2023-12-28T12:40:37;6.15;;;1.23;;
35907;SDS011;22003;50.320;8.054;2023-12-28T12:43:02;4.38;;;1.17;;
35907;SDS011;22003;50.320;8.054;2023-12-28T12:45:28;5.90;;;1.83;;
35907;SDS011;22003;50.320;8.054;2023-12-28T12:47:53;4.93;;;0.80;;
35907;SDS011;22003;50.320;8.054;2023-12-28T12:50:19;4.40;;;0.90;;
35907;SDS011;22003;50.320;8.054;2023-12-28T12:52:44;7.28;;;1.02;;
35907;SDS011;22003;50.320;8.054;2023-12-28T12:55:13;6.45;;;1.17;;
35907;SDS011;22003;50.320;8.054;2023-12-28T12:57:39;5.63;;;1.10;;
35907;SDS011;22003;50.320;8.054;2023-12-28T13:00:05;7.00;;;1.50;;
35907;SDS011;22003;50.320;8.054;2023-12-28T13:02:34;3.15;;;0.70;;
35907;SDS011;22003;50.320;8.054;2023-12-28T13:05:01;1.92;;;0.85;;
35907;SDS011;22003;50.320;8.054;2023-12-28T13:07:27;4.63;;;1.17;;
35907;SDS011;22003;50.320;8.054;2023-12-28T13:09:52;7.72;;;1.10;;
35907;SDS011;22003;50.320;8.054;2023-12-28T13:12:17;7.55;;;1.02;;
35907;SDS011;22003;50.320;8.054;2023-12-28T13:14:43;5.28;;;1.23;;
35907;SDS011;22003;50.320;8.054;2023-12-28T13:17:09;3.65;;;1.05;;
35907;SDS011;22003;50.320;8.054;2023-12-28T13:19:35;2.60;;;0.80;;
35907;SDS011;22003;50.320;8.054;2023-12-28T13:22:00;1.77;;;0.70;;
35907;SDS011;22003;50.320;8.054;2023-12-28T13:24:26;7.65;;;1.17;;
35907;SDS011;22003;50.320;8.054;2023-12-28T13:26:51;1.88;;;0.80;;
35907;SDS011;22003;50.320;8.054;2023-12-28T13:29:16;5.72;;;1.48;;
35907;SDS011;22003;50.320;8.054;2023-12-28T13:31:42;9.95;;;1.40;;
35907;SDS011;22003;50.320;8.054;2023-12-28T13:34:09;6.55;;;1.35;;
35907;SDS011;22003;50.320;8.054;2023-12-28T13:36:34;5.35;;;1.50;;
35907;SDS011;22003;50.320;8.054;2023-12-28T13:39:00;4.25;;;1.17;;
35907;SDS011;22003;50.320;8.054;2023-12-28T13:41:25;5.57;;;1.15;;
35907;SDS011;22003;50.320;8.054;2023-12-28T13:43:50;6.65;;;1.08;;
35907;SDS011;22003;50.320;8.054;2023-12-28T13:46:16;2.17;;;0.95;;
35907;SDS011;22003;50.320;8.054;2023-12-28T13:48:41;6.15;;;1.10;;
35907;SDS011;22003;50.320;8.054;2023-12-28T13:51:07;8.95;;;1.95;;
35907;SDS011;22003;50.320;8.054;2023-12-28T13:53:33;6.75;;;1.10;;
35907;SDS011;22003;50.320;8.054;2023-12-28T13:56:05;7.13;;;1.05;;
35907;SDS011;22003;50.320;8.054;2023-12-28T13:58:30;7.15;;;1.10;;
35907;SDS011;22003;50.320;8.054;2023-12-28T14:00:56;6.85;;;1.05;;
35907;SDS011;22003;50.320;8.054;2023-12-28T14:03:21;4.53;;;1.15;;
35907;SDS011;22003;50.320;8.054;2023-12-28T14:05:46;3.47;;;0.80;;
35907;SDS011;22003;50.320;8.054;2023-12-28T14:08:11;6.18;;;1.08;;
35907;SDS011;22003;50.320;8.054;2023-12-28T14:10:37;6.07;;;1.27;;
35907;SDS011;22003;50.320;8.054;2023-12-28T14:13:03;5.25;;;1.25;;
35907;SDS011;22003;50.320;8.054;2023-12-28T14:15:30;3.05;;;1.35;;
35907;SDS011;22003;50.320;8.054;2023-12-28T14:17:55;6.13;;;0.70;;
35907;SDS011;22003;50.320;8.054;2023-12-28T14:20:21;1.80;;;1.40;;
35907;SDS011;22003;50.320;8.054;2023-12-28T14:22:46;3.08;;;1.15;;
35907;SDS011;22003;50.320;8.054;2023-12-28T14:25:12;2.85;;;0.93;;
35907;SDS011;22003;50.320;8.054;2023-12-28T14:27:38;4.63;;;1.25;;
35907;SDS011;22003;50.320;8.054;2023-12-28T14:30:04;3.78;;;1.10;;
35907;SDS011;22003;50.320;8.054;2023-12-28T14:32:31;1.93;;;1.03;;
35907;SDS011;22003;50.320;8.054;2023-12-28T14:34:57;3.78;;;1.00;;
35907;SDS011;22003;50.320;8.054;2023-12-28T14:37:22;5.95;;;0.80;;
35907;SDS011;22003;50.320;8.054;2023-12-28T14:39:48;3.35;;;1.00;;
35907;SDS011;22003;50.320;8.054;2023-12-28T14:42:13;3.22;;;1.40;;
35907;SDS011;22003;50.320;8.054;2023-12-28T14:44:38;3.97;;;1.02;;
35907;SDS011;22003;50.320;8.054;2023-12-28T14:47:04;1.98;;;0.70;;